createdAt,value
2023-05-07T00:01:07.671Z,18.70
2023-05-07T00:03:37.883Z,18.69
2023-05-07T00:06:08.221Z,18.66
2023-05-07T00:08:40.784Z,18.61
2023-05-07T00:11:10.710Z,18.60
2023-05-07T00:13:40.593Z,18.58
2023-05-07T00:16:10.501Z,18.55
2023-05-07T00:18:40.498Z,18.54
2023-05-07T00:21:10.453Z,18.51
2023-05-07T00:23:43.206Z,18.49
2023-05-07T00:26:13.084Z,18.47
2023-05-07T00:28:42.959Z,18.45
2023-05-07T00:31:14.130Z,18.40
2023-05-07T00:33:44.024Z,18.39
2023-05-07T00:36:13.848Z,18.39
2023-05-07T00:38:46.419Z,18.38
2023-05-07T00:41:16.324Z,18.38
2023-05-07T00:43:46.174Z,18.36
2023-05-07T00:46:17.503Z,18.34
2023-05-07T00:48:47.438Z,18.30
2023-05-07T00:51:17.849Z,18.28
2023-05-07T00:53:50.833Z,18.22
2023-05-07T00:56:21.453Z,18.18
2023-05-07T00:58:51.611Z,18.16
2023-05-07T01:01:21.597Z,18.15
2023-05-07T01:03:51.643Z,18.15
2023-05-07T01:06:22.604Z,18.17
2023-05-07T01:08:58.160Z,18.15
2023-05-07T01:11:28.201Z,18.15
2023-05-07T01:13:58.437Z,18.17
2023-05-07T01:16:28.730Z,18.18
2023-05-07T01:18:58.604Z,18.18
2023-05-07T01:21:31.720Z,18.20
2023-05-07T01:24:04.791Z,18.21
2023-05-07T01:26:35.165Z,18.22
2023-05-07T01:29:05.104Z,18.23
2023-05-07T01:31:36.769Z,18.24
2023-05-07T01:34:09.087Z,18.25
2023-05-07T01:36:41.742Z,18.27
2023-05-07T01:39:14.634Z,18.26
2023-05-07T01:41:44.632Z,18.25
2023-05-07T01:44:16.851Z,18.24
2023-05-07T01:46:47.057Z,18.24
2023-05-07T01:49:17.354Z,18.22
2023-05-07T01:51:47.711Z,18.22
2023-05-07T01:54:21.833Z,18.21
2023-05-07T01:56:52.037Z,18.15
2023-05-07T01:59:21.937Z,18.11
2023-05-07T02:01:51.897Z,18.08
2023-05-07T02:04:21.977Z,18.05
2023-05-07T02:07:04.056Z,18.02
2023-05-07T02:09:36.639Z,17.99
2023-05-07T02:12:07.302Z,17.98
2023-05-07T02:14:37.188Z,17.96
2023-05-07T02:17:07.188Z,17.93
2023-05-07T02:19:37.036Z,17.91
2023-05-07T02:22:06.912Z,17.86
2023-05-07T02:24:39.456Z,17.83
2023-05-07T02:27:09.355Z,17.81
2023-05-07T02:29:39.209Z,17.81
2023-05-07T02:32:09.128Z,17.78
2023-05-07T02:34:39.169Z,17.77
2023-05-07T02:37:09.133Z,17.74
2023-05-07T02:39:42.139Z,17.70
2023-05-07T02:42:12.040Z,17.67
2023-05-07T02:44:41.969Z,17.65
2023-05-07T02:47:14.264Z,17.64
2023-05-07T02:49:44.269Z,17.60
2023-05-07T02:52:14.257Z,17.57
2023-05-07T02:54:46.836Z,17.55
2023-05-07T02:57:16.687Z,17.52
2023-05-07T02:59:47.072Z,17.51
2023-05-07T03:02:17.002Z,17.49
2023-05-07T03:04:47.229Z,17.49
2023-05-07T03:07:17.135Z,17.45
2023-05-07T03:09:49.777Z,17.44
2023-05-07T03:12:20.328Z,17.40
2023-05-07T03:14:50.139Z,17.41
2023-05-07T03:17:20.230Z,17.39
2023-05-07T03:19:50.100Z,17.35
2023-05-07T03:22:19.970Z,17.33
2023-05-07T03:24:52.523Z,17.31
2023-05-07T03:27:22.385Z,17.32
2023-05-07T03:29:52.591Z,17.33
2023-05-07T03:32:22.644Z,17.37
2023-05-07T03:34:53.036Z,17.39
2023-05-07T03:37:23.084Z,17.40
2023-05-07T03:39:55.559Z,17.42
2023-05-07T03:42:25.444Z,17.43
2023-05-07T03:44:55.449Z,17.45
2023-05-07T03:47:27.555Z,17.45
2023-05-07T03:49:57.428Z,17.47
2023-05-07T03:52:27.321Z,17.46
2023-05-07T03:54:59.866Z,17.48
2023-05-07T03:57:29.695Z,17.46
2023-05-07T03:59:59.946Z,17.48
2023-05-07T04:02:29.990Z,17.46
2023-05-07T04:05:00.463Z,17.47
2023-05-07T04:07:30.448Z,17.46
2023-05-07T04:10:03.487Z,17.46
2023-05-07T04:12:33.464Z,17.43
2023-05-07T04:15:03.358Z,17.42
2023-05-07T04:17:33.432Z,17.41
2023-05-07T04:20:03.571Z,17.37
2023-05-07T04:22:33.400Z,17.32
2023-05-07T04:25:05.904Z,17.28
2023-05-07T04:27:35.923Z,17.23
2023-05-07T04:30:05.793Z,17.23
2023-05-07T04:32:35.852Z,17.19
2023-05-07T04:35:05.740Z,17.17
2023-05-07T04:37:36.339Z,17.15
2023-05-07T04:40:11.502Z,17.17
2023-05-07T04:42:41.693Z,17.16
2023-05-07T04:45:13.603Z,17.17
2023-05-07T04:47:43.548Z,17.13
2023-05-07T04:50:14.632Z,17.12
2023-05-07T04:52:44.494Z,17.11
2023-05-07T04:55:17.048Z,17.11
2023-05-07T04:57:47.067Z,17.10
2023-05-07T05:00:20.761Z,17.10
2023-05-07T05:02:50.805Z,17.10
2023-05-07T05:05:20.987Z,17.11
2023-05-07T05:07:50.806Z,17.10
2023-05-07T05:10:24.584Z,17.11
2023-05-07T05:12:54.861Z,17.14
2023-05-07T05:15:24.856Z,17.16
2023-05-07T05:17:54.797Z,17.14
2023-05-07T05:20:24.812Z,17.15
2023-05-07T05:22:54.840Z,17.15
2023-05-07T05:25:27.346Z,17.14
2023-05-07T05:27:57.771Z,17.13
2023-05-07T05:30:27.819Z,17.13
2023-05-07T05:32:57.756Z,17.15
2023-05-07T05:35:27.881Z,17.14
2023-05-07T05:37:57.855Z,17.17
2023-05-07T05:40:31.037Z,17.20
2023-05-07T05:43:01.171Z,17.20
2023-05-07T05:45:31.263Z,17.22
2023-05-07T05:48:01.513Z,17.24
2023-05-07T05:50:31.577Z,17.28
2023-05-07T05:53:01.609Z,17.31
2023-05-07T05:55:34.496Z,17.37
2023-05-07T05:58:04.908Z,17.42
2023-05-07T06:00:36.331Z,17.47
2023-05-07T06:03:06.383Z,17.56
2023-05-07T06:05:36.277Z,17.61
2023-05-07T06:08:06.629Z,17.66
2023-05-07T06:10:39.967Z,17.74
2023-05-07T06:13:09.930Z,17.85
2023-05-07T06:15:40.605Z,17.94
2023-05-07T06:18:10.681Z,18.05
2023-05-07T06:20:41.071Z,18.14
2023-05-07T06:23:11.090Z,18.22
2023-05-07T06:25:43.500Z,18.29
2023-05-07T06:28:13.515Z,18.36
2023-05-07T06:30:43.674Z,18.33
2023-05-07T06:33:15.494Z,18.33
2023-05-07T06:35:45.676Z,18.34
2023-05-07T06:38:15.660Z,18.29
2023-05-07T06:40:48.149Z,18.33
2023-05-07T06:43:18.022Z,18.39
2023-05-07T06:45:47.901Z,18.48
2023-05-07T06:48:17.762Z,18.59
2023-05-07T06:50:47.821Z,18.68
2023-05-07T06:53:17.757Z,18.75
2023-05-07T06:55:51.234Z,18.80
2023-05-07T06:58:21.052Z,18.80
2023-05-07T07:00:50.984Z,18.83
2023-05-07T07:03:21.002Z,18.88
2023-05-07T07:05:51.005Z,18.95
2023-05-07T07:08:22.429Z,19.01
2023-05-07T07:10:54.909Z,19.08
2023-05-07T07:13:25.007Z,19.15
2023-05-07T07:15:55.955Z,19.20
2023-05-07T07:18:26.129Z,19.22
2023-05-07T07:20:55.968Z,19.26
2023-05-07T07:23:26.268Z,19.29
2023-05-07T07:25:58.998Z,19.32
2023-05-07T07:28:28.976Z,19.32
2023-05-07T07:30:59.184Z,19.41
2023-05-07T07:33:29.114Z,19.55
2023-05-07T07:35:59.781Z,19.77
2023-05-07T07:38:29.916Z,20.02
2023-05-07T07:41:02.434Z,20.29
2023-05-07T07:43:32.352Z,20.48
2023-05-07T07:46:02.330Z,20.54
2023-05-07T07:48:32.234Z,20.50
2023-05-07T07:51:02.150Z,20.50
2023-05-07T07:53:32.122Z,20.57
2023-05-07T07:56:05.894Z,20.67
2023-05-07T07:58:36.857Z,20.87
2023-05-07T08:01:07.254Z,21.04
2023-05-07T08:03:37.370Z,21.12
2023-05-07T08:06:07.694Z,21.24
2023-05-07T08:08:37.618Z,21.49
2023-05-07T08:11:10.194Z,21.83
2023-05-07T08:13:40.863Z,21.85
2023-05-07T08:16:11.054Z,21.86
2023-05-07T08:18:40.987Z,21.87
2023-05-07T08:21:10.956Z,21.85
2023-05-07T08:23:40.801Z,21.92
2023-05-07T08:26:14.303Z,21.97
2023-05-07T08:28:44.358Z,21.92
2023-05-07T08:31:14.305Z,21.82
2023-05-07T08:33:44.288Z,21.79
2023-05-07T08:36:14.298Z,21.81
2023-05-07T08:38:46.874Z,21.87
2023-05-07T08:41:19.492Z,21.96
2023-05-07T08:43:52.240Z,22.01
2023-05-07T08:46:23.681Z,22.00
2023-05-07T08:48:54.218Z,22.19
2023-05-07T08:51:25.388Z,22.34
2023-05-07T08:53:55.270Z,22.62
2023-05-07T08:56:27.847Z,22.92
2023-05-07T08:58:59.946Z,23.18
2023-05-07T09:01:30.539Z,23.50
2023-05-07T09:04:01.442Z,23.65
2023-05-07T09:06:31.553Z,23.86
2023-05-07T09:09:02.460Z,23.88
2023-05-07T09:11:35.265Z,23.96
2023-05-07T09:14:05.929Z,23.99
2023-05-07T09:16:37.007Z,24.04
2023-05-07T09:19:07.017Z,24.20
2023-05-07T09:21:36.928Z,24.36
2023-05-07T09:24:07.109Z,24.68
2023-05-07T09:26:39.632Z,24.90
2023-05-07T09:29:09.980Z,25.10
2023-05-07T09:31:41.589Z,25.27
2023-05-07T09:34:11.464Z,25.39
2023-05-07T09:36:41.597Z,25.59
2023-05-07T09:39:11.889Z,25.70
2023-05-07T09:41:52.486Z,25.95
2023-05-07T09:44:22.698Z,26.17
2023-05-07T09:46:58.449Z,26.31
2023-05-07T09:49:29.038Z,26.44
2023-05-07T09:51:59.461Z,26.51
2023-05-07T09:54:30.711Z,26.62
2023-05-07T09:57:06.215Z,26.77
2023-05-07T09:59:38.529Z,26.95
2023-05-07T10:02:09.039Z,26.86
2023-05-07T10:04:41.692Z,26.82
2023-05-07T10:07:12.741Z,26.79
2023-05-07T10:09:45.317Z,26.72
2023-05-07T10:12:18.407Z,26.78
2023-05-07T10:14:50.159Z,26.72
2023-05-07T10:17:21.166Z,26.71
2023-05-07T10:19:51.348Z,26.83
2023-05-07T10:22:22.994Z,26.97
2023-05-07T10:24:56.309Z,27.06
2023-05-07T10:27:29.516Z,27.15
2023-05-07T10:30:10.202Z,27.18
2023-05-07T10:32:44.409Z,27.13
2023-05-07T10:35:20.419Z,27.10
2023-05-07T10:37:52.337Z,27.22
2023-05-07T10:40:23.996Z,27.44
2023-05-07T10:43:07.778Z,27.40
2023-05-07T10:45:40.217Z,27.66
2023-05-07T10:48:27.921Z,27.75
2023-05-07T10:51:23.431Z,27.81
2023-05-07T10:54:26.070Z,27.78
2023-05-07T10:56:56.441Z,27.70
2023-05-07T10:59:43.324Z,27.69
2023-05-07T11:02:15.534Z,27.86
2023-05-07T11:04:45.937Z,27.81
2023-05-07T11:07:29.881Z,27.70
2023-05-07T11:10:02.763Z,27.77
2023-05-07T11:12:54.558Z,27.72
2023-05-07T11:15:48.869Z,27.74
2023-05-07T11:18:20.805Z,27.95
2023-05-07T11:20:58.908Z,27.95
2023-05-07T11:24:10.466Z,27.97
2023-05-07T11:26:51.583Z,27.90
2023-05-07T11:29:23.937Z,27.78
2023-05-07T11:31:59.129Z,27.76
2023-05-07T11:34:30.497Z,27.78
2023-05-07T11:37:02.478Z,27.80
2023-05-07T11:39:34.599Z,27.74
2023-05-07T11:42:04.775Z,27.76
2023-05-07T11:44:49.445Z,28.03
2023-05-07T11:47:24.759Z,28.25
2023-05-07T11:49:56.193Z,28.20
2023-05-07T11:52:27.895Z,28.19
2023-05-07T11:54:58.836Z,28.15
2023-05-07T11:57:30.043Z,28.12
2023-05-07T12:00:00.825Z,28.03
2023-05-07T12:02:33.492Z,27.91
2023-05-07T12:05:05.914Z,27.85
2023-05-07T12:07:37.791Z,27.90
2023-05-07T12:10:09.729Z,27.87
2023-05-07T12:12:48.851Z,27.76
2023-05-07T12:15:20.339Z,27.66
2023-05-07T12:17:53.872Z,27.63
2023-05-07T12:20:24.089Z,27.59
2023-05-07T12:22:54.786Z,27.55
2023-05-07T12:25:24.942Z,27.46
2023-05-07T12:27:56.466Z,27.50
2023-05-07T12:30:26.442Z,27.41
2023-05-07T12:32:59.723Z,27.41
2023-05-07T12:35:33.108Z,27.41
2023-05-07T12:38:07.612Z,27.49
2023-05-07T12:40:41.712Z,27.46
2023-05-07T12:43:12.121Z,27.49
2023-05-07T12:45:42.819Z,27.41
2023-05-07T12:48:16.776Z,27.38
2023-05-07T12:50:46.973Z,27.38
2023-05-07T12:53:17.074Z,27.39
2023-05-07T12:55:48.258Z,27.42
2023-05-07T12:58:21.784Z,27.42
2023-05-07T13:00:53.077Z,27.41
2023-05-07T13:03:30.487Z,27.32
2023-05-07T13:06:03.734Z,27.24
2023-05-07T13:08:35.383Z,27.21
2023-05-07T13:11:07.216Z,27.14
2023-05-07T13:13:38.229Z,27.08
2023-05-07T13:16:10.158Z,26.94
2023-05-07T13:18:45.073Z,26.84
2023-05-07T13:21:15.614Z,26.71
2023-05-07T13:23:45.450Z,26.69
2023-05-07T13:26:26.211Z,26.60
2023-05-07T13:28:57.250Z,26.47
2023-05-07T13:31:28.633Z,26.33
2023-05-07T13:34:01.182Z,26.29
2023-05-07T13:36:34.164Z,26.18
2023-05-07T13:39:04.202Z,25.95
2023-05-07T13:41:34.091Z,25.80
2023-05-07T13:44:04.025Z,25.70
2023-05-07T13:46:34.090Z,25.41
2023-05-07T13:49:06.821Z,25.06
2023-05-07T13:51:36.665Z,24.97
2023-05-07T13:54:08.554Z,24.94
2023-05-07T13:56:38.417Z,24.90
2023-05-07T13:59:08.416Z,24.94
2023-05-07T14:01:38.412Z,25.01
2023-05-07T14:04:11.568Z,25.05
2023-05-07T14:06:41.518Z,24.95
2023-05-07T14:09:13.408Z,24.85
2023-05-07T14:11:43.641Z,24.87
2023-05-07T14:14:14.615Z,24.91
2023-05-07T14:16:50.726Z,24.93
2023-05-07T14:19:24.516Z,24.98
2023-05-07T14:21:54.443Z,24.93
2023-05-07T14:24:36.998Z,24.84
2023-05-07T14:27:08.327Z,24.83
2023-05-07T14:29:38.820Z,24.82
2023-05-07T14:32:09.184Z,24.81
2023-05-07T14:34:41.636Z,24.76
2023-05-07T14:37:11.613Z,24.59
2023-05-07T14:39:41.515Z,24.54
2023-05-07T14:42:12.672Z,24.55
2023-05-07T14:44:42.771Z,24.53
2023-05-07T14:47:12.816Z,24.52
2023-05-07T14:49:46.725Z,24.50
2023-05-07T14:52:16.656Z,24.46
2023-05-07T14:54:46.506Z,24.45
2023-05-07T14:57:19.790Z,24.40
2023-05-07T14:59:50.408Z,24.37
2023-05-07T15:02:21.288Z,24.27
2023-05-07T15:04:54.121Z,24.17
2023-05-07T15:07:24.127Z,24.14
2023-05-07T15:09:53.991Z,24.11
2023-05-07T15:12:23.920Z,23.97
2023-05-07T15:14:53.896Z,23.88
2023-05-07T15:17:23.849Z,23.81
2023-05-07T15:19:56.445Z,23.79
2023-05-07T15:22:26.432Z,23.76
2023-05-07T15:24:56.423Z,23.75
2023-05-07T15:27:26.400Z,23.71
2023-05-07T15:29:57.435Z,23.70
2023-05-07T15:32:27.331Z,23.68
2023-05-07T15:35:00.155Z,23.66
2023-05-07T15:37:32.633Z,23.62
2023-05-07T15:40:03.639Z,23.60
2023-05-07T15:42:33.919Z,23.58
2023-05-07T15:45:04.340Z,23.58
2023-05-07T15:47:37.358Z,23.58
2023-05-07T15:50:11.131Z,23.57
2023-05-07T15:52:42.113Z,23.56
2023-05-07T15:55:12.741Z,23.53
2023-05-07T15:57:42.780Z,23.46
2023-05-07T16:00:14.653Z,23.42
2023-05-07T16:02:46.887Z,23.39
2023-05-07T16:05:19.566Z,23.35
2023-05-07T16:07:49.632Z,23.31
2023-05-07T16:10:22.539Z,23.28
2023-05-07T16:12:52.587Z,23.25
2023-05-07T16:15:22.574Z,23.21
2023-05-07T16:17:58.129Z,23.21
2023-05-07T16:20:32.957Z,23.19
2023-05-07T16:23:02.956Z,23.19
2023-05-07T16:25:32.992Z,23.21
2023-05-07T16:28:02.832Z,23.14
2023-05-07T16:30:32.724Z,23.14
2023-05-07T16:33:03.100Z,23.12
2023-05-07T16:35:37.411Z,23.13
2023-05-07T16:38:10.560Z,23.14
2023-05-07T16:40:41.885Z,23.18
2023-05-07T16:43:11.788Z,23.16
2023-05-07T16:45:41.845Z,23.19
2023-05-07T16:48:12.361Z,23.24
2023-05-07T16:50:45.199Z,23.29
2023-05-07T16:53:17.579Z,23.28
2023-05-07T16:55:50.170Z,23.28
2023-05-07T16:58:20.060Z,23.30
2023-05-07T17:00:51.209Z,23.27
2023-05-07T17:03:21.758Z,23.28
2023-05-07T17:05:55.454Z,23.28
2023-05-07T17:08:25.430Z,23.29
2023-05-07T17:10:55.445Z,23.30
2023-05-07T17:13:25.605Z,23.31
2023-05-07T17:15:55.772Z,23.31
2023-05-07T17:18:25.768Z,23.31
2023-05-07T17:20:58.303Z,23.29
2023-05-07T17:23:28.128Z,23.24
2023-05-07T17:25:58.271Z,23.21
2023-05-07T17:28:28.192Z,23.16
2023-05-07T17:30:58.639Z,23.09
2023-05-07T17:33:28.654Z,23.02
2023-05-07T17:36:03.229Z,22.99
2023-05-07T17:38:33.186Z,22.95
2023-05-07T17:41:03.214Z,22.90
2023-05-07T17:43:33.131Z,22.85
2023-05-07T17:46:03.615Z,22.79
2023-05-07T17:48:33.720Z,22.72
2023-05-07T17:51:09.086Z,22.66
2023-05-07T17:53:39.137Z,22.63
2023-05-07T17:56:09.298Z,22.60
2023-05-07T17:58:57.418Z,22.59
2023-05-07T18:01:28.657Z,22.53
2023-05-07T18:03:58.897Z,22.45
2023-05-07T18:06:32.395Z,22.41
2023-05-07T18:09:02.499Z,22.40
2023-05-07T18:11:33.436Z,22.35
2023-05-07T18:14:03.901Z,22.30
2023-05-07T18:16:34.040Z,22.16
2023-05-07T18:19:04.060Z,22.01
2023-05-07T18:21:36.609Z,21.88
2023-05-07T18:24:06.708Z,21.76
2023-05-07T18:26:36.968Z,21.65
2023-05-07T18:29:06.984Z,21.62
2023-05-07T18:31:38.050Z,21.58
2023-05-07T18:34:08.199Z,21.50
2023-05-07T18:36:40.690Z,21.55
2023-05-07T18:39:11.306Z,21.59
2023-05-07T18:41:45.495Z,21.63
2023-05-07T18:44:16.707Z,21.62
2023-05-07T18:46:48.108Z,21.57
2023-05-07T18:49:18.172Z,21.59
2023-05-07T18:51:50.788Z,21.62
2023-05-07T18:54:20.697Z,21.61
2023-05-07T18:56:50.795Z,21.59
2023-05-07T18:59:20.964Z,21.58
2023-05-07T19:01:51.205Z,21.54
2023-05-07T19:04:21.214Z,21.41
2023-05-07T19:06:53.847Z,21.37
2023-05-07T19:09:24.375Z,21.32
2023-05-07T19:11:54.340Z,21.30
2023-05-07T19:14:24.394Z,21.19
2023-05-07T19:16:54.425Z,21.16
2023-05-07T19:19:27.219Z,21.10
2023-05-07T19:21:59.951Z,21.07
2023-05-07T19:24:29.863Z,20.97
2023-05-07T19:26:59.872Z,20.92
2023-05-07T19:29:29.758Z,20.90
2023-05-07T19:31:59.905Z,20.89
2023-05-07T19:34:30.522Z,20.88
2023-05-07T19:37:03.069Z,20.85
2023-05-07T19:39:33.020Z,20.84
2023-05-07T19:42:03.156Z,20.83
2023-05-07T19:44:33.123Z,20.82
2023-05-07T19:47:04.307Z,20.81
2023-05-07T19:49:37.324Z,20.80
2023-05-07T19:52:09.977Z,20.79
2023-05-07T19:54:39.929Z,20.74
2023-05-07T19:57:09.933Z,20.71
2023-05-07T19:59:40.530Z,20.66
2023-05-07T20:02:10.597Z,20.65
2023-05-07T20:04:40.484Z,20.65
2023-05-07T20:07:13.162Z,20.63
2023-05-07T20:09:44.448Z,20.62
2023-05-07T20:12:14.334Z,20.63
2023-05-07T20:14:44.383Z,20.63
2023-05-07T20:17:14.479Z,20.63
2023-05-07T20:19:44.382Z,20.63
2023-05-07T20:22:17.094Z,20.63
2023-05-07T20:24:47.035Z,20.61
2023-05-07T20:27:19.713Z,20.60
2023-05-07T20:29:49.867Z,20.60
2023-05-07T20:32:20.748Z,20.61
2023-05-07T20:34:50.590Z,20.54
2023-05-07T20:37:23.143Z,20.53
2023-05-07T20:39:52.998Z,20.51
2023-05-07T20:42:22.884Z,20.51
2023-05-07T20:44:52.831Z,20.50
2023-05-07T20:47:22.948Z,20.49
2023-05-07T20:49:53.818Z,20.48
2023-05-07T20:52:26.448Z,20.46
2023-05-07T20:54:56.272Z,20.43
2023-05-07T20:57:28.522Z,20.40
2023-05-07T21:00:01.170Z,20.35
2023-05-07T21:02:31.143Z,20.32
2023-05-07T21:05:01.069Z,20.28
2023-05-07T21:07:33.615Z,20.25
2023-05-07T21:10:03.751Z,20.20
2023-05-07T21:12:33.634Z,20.17
2023-05-07T21:15:03.765Z,20.13
2023-05-07T21:17:35.578Z,20.09
2023-05-07T21:20:06.084Z,20.05
2023-05-07T21:22:38.603Z,20.03
2023-05-07T21:25:10.462Z,20.01
2023-05-07T21:27:41.462Z,19.98
2023-05-07T21:30:13.442Z,19.96
2023-05-07T21:32:44.752Z,19.93
2023-05-07T21:35:14.820Z,19.88
2023-05-07T21:37:47.368Z,19.85
2023-05-07T21:40:17.914Z,19.83
2023-05-07T21:42:47.790Z,19.82
2023-05-07T21:45:17.645Z,19.80
2023-05-07T21:47:47.839Z,19.77
2023-05-07T21:50:17.740Z,19.74
2023-05-07T21:52:50.440Z,19.72
2023-05-07T21:55:21.174Z,19.69
2023-05-07T21:58:04.019Z,19.67
2023-05-07T22:00:35.498Z,19.61
2023-05-07T22:03:05.775Z,19.58
2023-05-07T22:05:35.626Z,19.58
2023-05-07T22:08:08.413Z,19.60
2023-05-07T22:10:39.063Z,19.62
2023-05-07T22:13:09.168Z,19.63
2023-05-07T22:15:53.234Z,19.64
2023-05-07T22:18:26.973Z,19.65
2023-05-07T22:20:56.811Z,19.67
2023-05-07T22:23:29.282Z,19.68
2023-05-07T22:25:59.147Z,19.68
2023-05-07T22:28:29.105Z,19.68
2023-05-07T22:30:59.054Z,19.69
2023-05-07T22:33:28.951Z,19.68
2023-05-07T22:35:58.840Z,19.68
2023-05-07T22:38:31.566Z,19.65
2023-05-07T22:41:02.473Z,19.62
2023-05-07T22:43:32.365Z,19.53
2023-05-07T22:46:03.363Z,19.52
2023-05-07T22:48:33.426Z,19.51
2023-05-07T22:51:03.993Z,19.48
2023-05-07T22:53:36.525Z,19.46
2023-05-07T22:56:09.058Z,19.44
2023-05-07T22:58:39.256Z,19.41
2023-05-07T23:01:15.473Z,19.36
2023-05-07T23:03:45.498Z,19.32
2023-05-07T23:06:15.725Z,19.28
2023-05-07T23:08:48.347Z,19.27
2023-05-07T23:11:18.431Z,19.21
2023-05-07T23:13:48.284Z,19.18
2023-05-07T23:16:18.189Z,19.16
2023-05-07T23:18:48.569Z,19.13
2023-05-07T23:21:18.423Z,19.09
2023-05-07T23:23:51.292Z,19.07
2023-05-07T23:26:21.544Z,19.04
2023-05-07T23:28:51.431Z,19.03
2023-05-07T23:31:21.287Z,19.02
2023-05-07T23:33:53.922Z,19.00
2023-05-07T23:36:24.089Z,18.97
2023-05-07T23:38:56.635Z,18.94
2023-05-07T23:41:26.780Z,18.92
2023-05-07T23:43:56.889Z,18.89
2023-05-07T23:46:27.282Z,18.87
2023-05-07T23:48:57.130Z,18.83
2023-05-07T23:51:28.214Z,18.82
2023-05-07T23:54:00.918Z,18.79
2023-05-07T23:56:30.805Z,18.75
2023-05-07T23:59:00.715Z,18.74
